sensor_id;sensor_type;location;lat;lon;timestamp;P1;durP1;ratioP1;P2;durP2;ratioP2
4462;SDS011;2244;50.200;8.220;2023-11-21T00:00:02;24.07;;;6.10;;
4462;SDS011;2244;50.200;8.220;2023-11-21T00:02:30;35.30;;;13.07;;
4462;SDS011;2244;50.200;8.220;2023-11-21T00:04:58;28.17;;;9.17;;
4462;SDS011;2244;50.200;8.220;2023-11-21T00:07:25;32.17;;;10.10;;
4462;SDS011;2244;50.200;8.220;2023-11-21T00:09:53;24.00;;;6.07;;
4462;SDS011;2244;50.200;8.220;2023-11-21T00:12:22;24.30;;;6.00;;
4462;SDS011;2244;50.200;8.220;2023-11-21T00:14:51;23.60;;;5.80;;
4462;SDS011;2244;50.200;8.220;2023-11-21T00:17:21;23.47;;;5.40;;
4462;SDS011;2244;50.200;8.220;2023-11-21T00:19:48;21.87;;;4.67;;
4462;SDS011;2244;50.200;8.220;2023-11-21T00:22:16;23.13;;;5.03;;
4462;SDS011;2244;50.200;8.220;2023-11-21T00:24:44;23.50;;;5.83;;
4462;SDS011;2244;50.200;8.220;2023-11-21T00:27:11;22.73;;;6.50;;
4462;SDS011;2244;50.200;8.220;2023-11-21T00:29:39;25.97;;;6.53;;
4462;SDS011;2244;50.200;8.220;2023-11-21T00:32:06;23.63;;;5.83;;
4462;SDS011;2244;50.200;8.220;2023-11-21T00:34:34;22.50;;;5.40;;
4462;SDS011;2244;50.200;8.220;2023-11-21T00:37:01;26.37;;;8.20;;
4462;SDS011;2244;50.200;8.220;2023-11-21T00:39:29;26.47;;;9.07;;
4462;SDS011;2244;50.200;8.220;2023-11-21T00:41:57;26.00;;;8.73;;
4462;SDS011;2244;50.200;8.220;2023-11-21T00:44:24;24.90;;;7.27;;
4462;SDS011;2244;50.200;8.220;2023-11-21T00:46:52;22.50;;;5.13;;
4462;SDS011;2244;50.200;8.220;2023-11-21T00:49:19;23.23;;;4.00;;
4462;SDS011;2244;50.200;8.220;2023-11-21T00:51:48;23.67;;;4.00;;
4462;SDS011;2244;50.200;8.220;2023-11-21T00:54:16;19.80;;;3.60;;
4462;SDS011;2244;50.200;8.220;2023-11-21T00:56:46;20.93;;;4.00;;
4462;SDS011;2244;50.200;8.220;2023-11-21T00:59:16;20.57;;;3.80;;
4462;SDS011;2244;50.200;8.220;2023-11-21T01:01:44;19.90;;;3.53;;
4462;SDS011;2244;50.200;8.220;2023-11-21T01:04:11;20.10;;;3.27;;
4462;SDS011;2244;50.200;8.220;2023-11-21T01:06:39;21.67;;;3.70;;
4462;SDS011;2244;50.200;8.220;2023-11-21T01:09:07;19.87;;;3.43;;
4462;SDS011;2244;50.200;8.220;2023-11-21T01:11:35;19.30;;;3.00;;
4462;SDS011;2244;50.200;8.220;2023-11-21T01:14:04;19.90;;;3.10;;
4462;SDS011;2244;50.200;8.220;2023-11-21T01:16:32;18.90;;;2.10;;
4462;SDS011;2244;50.200;8.220;2023-11-21T01:19:00;19.90;;;2.43;;
4462;SDS011;2244;50.200;8.220;2023-11-21T01:21:28;20.67;;;3.00;;
4462;SDS011;2244;50.200;8.220;2023-11-21T01:23:57;20.50;;;2.63;;
4462;SDS011;2244;50.200;8.220;2023-11-21T01:26:24;19.20;;;2.80;;
4462;SDS011;2244;50.200;8.220;2023-11-21T01:28:52;19.87;;;2.73;;
4462;SDS011;2244;50.200;8.220;2023-11-21T01:31:20;19.27;;;2.67;;
4462;SDS011;2244;50.200;8.220;2023-11-21T01:33:47;18.67;;;2.50;;
4462;SDS011;2244;50.200;8.220;2023-11-21T01:36:15;18.80;;;2.47;;
4462;SDS011;2244;50.200;8.220;2023-11-21T01:38:42;18.10;;;1.90;;
4462;SDS011;2244;50.200;8.220;2023-11-21T01:41:10;18.43;;;2.30;;
4462;SDS011;2244;50.200;8.220;2023-11-21T01:43:40;20.17;;;2.90;;
4462;SDS011;2244;50.200;8.220;2023-11-21T01:46:08;19.00;;;2.97;;
4462;SDS011;2244;50.200;8.220;2023-11-21T01:48:35;19.00;;;3.10;;
4462;SDS011;2244;50.200;8.220;2023-11-21T01:51:04;19.50;;;3.10;;
4462;SDS011;2244;50.200;8.220;2023-11-21T01:53:31;18.97;;;2.60;;
4462;SDS011;2244;50.200;8.220;2023-11-21T01:55:59;24.00;;;2.93;;
4462;SDS011;2244;50.200;8.220;2023-11-21T01:58:26;20.20;;;2.57;;
4462;SDS011;2244;50.200;8.220;2023-11-21T02:00:54;19.37;;;2.70;;
4462;SDS011;2244;50.200;8.220;2023-11-21T02:03:22;19.57;;;3.07;;
4462;SDS011;2244;50.200;8.220;2023-11-21T02:05:49;21.07;;;3.30;;
4462;SDS011;2244;50.200;8.220;2023-11-21T02:08:17;22.70;;;3.90;;
4462;SDS011;2244;50.200;8.220;2023-11-21T02:10:45;26.40;;;3.37;;
4462;SDS011;2244;50.200;8.220;2023-11-21T02:13:14;23.87;;;4.27;;
4462;SDS011;2244;50.200;8.220;2023-11-21T02:15:43;22.90;;;3.40;;
4462;SDS011;2244;50.200;8.220;2023-11-21T02:18:10;18.83;;;2.90;;
4462;SDS011;2244;50.200;8.220;2023-11-21T02:20:38;18.77;;;2.67;;
4462;SDS011;2244;50.200;8.220;2023-11-21T02:23:07;20.57;;;4.10;;
4462;SDS011;2244;50.200;8.220;2023-11-21T02:25:35;20.30;;;3.87;;
4462;SDS011;2244;50.200;8.220;2023-11-21T02:28:03;20.67;;;4.00;;
4462;SDS011;2244;50.200;8.220;2023-11-21T02:30:31;20.70;;;4.20;;
4462;SDS011;2244;50.200;8.220;2023-11-21T02:32:59;20.87;;;3.87;;
4462;SDS011;2244;50.200;8.220;2023-11-21T02:35:27;19.60;;;3.40;;
4462;SDS011;2244;50.200;8.220;2023-11-21T02:37:56;20.27;;;3.77;;
4462;SDS011;2244;50.200;8.220;2023-11-21T02:40:23;20.20;;;3.70;;
4462;SDS011;2244;50.200;8.220;2023-11-21T02:42:52;19.90;;;3.80;;
4462;SDS011;2244;50.200;8.220;2023-11-21T02:45:20;20.80;;;3.90;;
4462;SDS011;2244;50.200;8.220;2023-11-21T02:47:48;20.20;;;3.73;;
4462;SDS011;2244;50.200;8.220;2023-11-21T02:50:16;23.33;;;3.37;;
4462;SDS011;2244;50.200;8.220;2023-11-21T02:52:45;20.53;;;4.17;;
4462;SDS011;2244;50.200;8.220;2023-11-21T02:55:13;20.67;;;3.67;;
4462;SDS011;2244;50.200;8.220;2023-11-21T02:57:41;21.30;;;4.20;;
4462;SDS011;2244;50.200;8.220;2023-11-21T03:00:08;23.70;;;4.30;;
4462;SDS011;2244;50.200;8.220;2023-11-21T03:02:41;20.73;;;3.90;;
4462;SDS011;2244;50.200;8.220;2023-11-21T03:05:08;20.60;;;3.60;;
4462;SDS011;2244;50.200;8.220;2023-11-21T03:07:37;22.23;;;4.40;;
4462;SDS011;2244;50.200;8.220;2023-11-21T03:10:05;22.57;;;4.20;;
4462;SDS011;2244;50.200;8.220;2023-11-21T03:12:33;20.73;;;4.40;;
4462;SDS011;2244;50.200;8.220;2023-11-21T03:15:00;20.00;;;3.63;;
4462;SDS011;2244;50.200;8.220;2023-11-21T03:17:28;20.60;;;3.80;;
4462;SDS011;2244;50.200;8.220;2023-11-21T03:19:56;20.37;;;3.87;;
4462;SDS011;2244;50.200;8.220;2023-11-21T03:22:23;22.07;;;4.20;;
4462;SDS011;2244;50.200;8.220;2023-11-21T03:24:51;21.27;;;4.17;;
4462;SDS011;2244;50.200;8.220;2023-11-21T03:27:19;21.67;;;4.70;;
4462;SDS011;2244;50.200;8.220;2023-11-21T03:29:47;21.93;;;5.10;;
4462;SDS011;2244;50.200;8.220;2023-11-21T03:32:16;24.33;;;5.60;;
4462;SDS011;2244;50.200;8.220;2023-11-21T03:34:53;23.23;;;5.70;;
4462;SDS011;2244;50.200;8.220;2023-11-21T03:37:23;23.60;;;6.00;;
4462;SDS011;2244;50.200;8.220;2023-11-21T03:39:51;24.87;;;6.40;;
4462;SDS011;2244;50.200;8.220;2023-11-21T03:42:19;24.73;;;7.30;;
4462;SDS011;2244;50.200;8.220;2023-11-21T03:44:46;26.90;;;8.40;;
4462;SDS011;2244;50.200;8.220;2023-11-21T03:47:13;28.47;;;9.00;;
4462;SDS011;2244;50.200;8.220;2023-11-21T03:49:42;29.80;;;8.53;;
4462;SDS011;2244;50.200;8.220;2023-11-21T03:52:09;27.77;;;9.80;;
4462;SDS011;2244;50.200;8.220;2023-11-21T03:54:37;29.20;;;10.10;;
4462;SDS011;2244;50.200;8.220;2023-11-21T03:57:04;24.60;;;8.20;;
4462;SDS011;2244;50.200;8.220;2023-11-21T03:59:32;28.07;;;10.40;;
4462;SDS011;2244;50.200;8.220;2023-11-21T04:01:59;23.90;;;7.30;;
4462;SDS011;2244;50.200;8.220;2023-11-21T04:04:26;26.77;;;8.40;;
4462;SDS011;2244;50.200;8.220;2023-11-21T04:06:54;30.00;;;8.53;;
4462;SDS011;2244;50.200;8.220;2023-11-21T04:09:22;25.57;;;8.17;;
4462;SDS011;2244;50.200;8.220;2023-11-21T04:11:52;25.50;;;7.97;;
4462;SDS011;2244;50.200;8.220;2023-11-21T04:14:22;29.90;;;11.00;;
4462;SDS011;2244;50.200;8.220;2023-11-21T04:16:49;31.63;;;10.03;;
4462;SDS011;2244;50.200;8.220;2023-11-21T04:19:17;32.10;;;12.70;;
4462;SDS011;2244;50.200;8.220;2023-11-21T04:21:45;38.80;;;12.60;;
4462;SDS011;2244;50.200;8.220;2023-11-21T04:24:12;30.97;;;12.17;;
4462;SDS011;2244;50.200;8.220;2023-11-21T04:26:40;35.00;;;13.43;;
4462;SDS011;2244;50.200;8.220;2023-11-21T04:29:07;28.73;;;10.80;;
4462;SDS011;2244;50.200;8.220;2023-11-21T04:31:35;30.43;;;10.60;;
4462;SDS011;2244;50.200;8.220;2023-11-21T04:34:02;28.00;;;9.07;;
4462;SDS011;2244;50.200;8.220;2023-11-21T04:36:31;26.60;;;9.20;;
4462;SDS011;2244;50.200;8.220;2023-11-21T04:38:59;26.67;;;9.23;;
4462;SDS011;2244;50.200;8.220;2023-11-21T04:41:26;27.40;;;9.60;;
4462;SDS011;2244;50.200;8.220;2023-11-21T04:43:54;26.50;;;8.17;;
4462;SDS011;2244;50.200;8.220;2023-11-21T04:46:21;23.80;;;7.03;;
4462;SDS011;2244;50.200;8.220;2023-11-21T04:48:49;23.43;;;6.80;;
4462;SDS011;2244;50.200;8.220;2023-11-21T04:51:16;24.63;;;7.03;;
4462;SDS011;2244;50.200;8.220;2023-11-21T04:53:44;25.37;;;7.00;;
4462;SDS011;2244;50.200;8.220;2023-11-21T04:56:11;25.17;;;7.80;;
4462;SDS011;2244;50.200;8.220;2023-11-21T04:58:39;27.50;;;8.47;;
4462;SDS011;2244;50.200;8.220;2023-11-21T05:01:07;27.53;;;8.40;;
4462;SDS011;2244;50.200;8.220;2023-11-21T05:03:34;26.00;;;7.67;;
4462;SDS011;2244;50.200;8.220;2023-11-21T05:06:02;25.90;;;7.87;;
4462;SDS011;2244;50.200;8.220;2023-11-21T05:08:31;24.83;;;7.23;;
4462;SDS011;2244;50.200;8.220;2023-11-21T05:10:59;24.47;;;6.97;;
4462;SDS011;2244;50.200;8.220;2023-11-21T05:13:26;23.30;;;6.90;;
4462;SDS011;2244;50.200;8.220;2023-11-21T05:15:55;23.47;;;6.63;;
4462;SDS011;2244;50.200;8.220;2023-11-21T05:18:25;21.50;;;5.20;;
4462;SDS011;2244;50.200;8.220;2023-11-21T05:20:56;20.83;;;4.33;;
4462;SDS011;2244;50.200;8.220;2023-11-21T05:23:24;20.80;;;4.83;;
4462;SDS011;2244;50.200;8.220;2023-11-21T05:25:51;21.70;;;5.17;;
4462;SDS011;2244;50.200;8.220;2023-11-21T05:28:19;23.50;;;5.20;;
4462;SDS011;2244;50.200;8.220;2023-11-21T05:30:46;21.80;;;4.80;;
4462;SDS011;2244;50.200;8.220;2023-11-21T05:33:14;21.80;;;4.97;;
4462;SDS011;2244;50.200;8.220;2023-11-21T05:35:41;22.57;;;4.90;;
4462;SDS011;2244;50.200;8.220;2023-11-21T05:38:09;23.97;;;6.73;;
4462;SDS011;2244;50.200;8.220;2023-11-21T05:40:36;23.10;;;5.73;;
4462;SDS011;2244;50.200;8.220;2023-11-21T05:43:04;21.10;;;4.53;;
4462;SDS011;2244;50.200;8.220;2023-11-21T05:45:34;23.03;;;5.33;;
4462;SDS011;2244;50.200;8.220;2023-11-21T05:48:02;21.57;;;5.03;;
4462;SDS011;2244;50.200;8.220;2023-11-21T05:50:31;21.83;;;5.47;;
4462;SDS011;2244;50.200;8.220;2023-11-21T05:52:58;22.27;;;5.50;;
4462;SDS011;2244;50.200;8.220;2023-11-21T05:55:27;23.87;;;5.53;;
4462;SDS011;2244;50.200;8.220;2023-11-21T05:57:54;25.17;;;7.50;;
4462;SDS011;2244;50.200;8.220;2023-11-21T06:00:22;23.70;;;6.93;;
4462;SDS011;2244;50.200;8.220;2023-11-21T06:02:52;25.40;;;7.67;;
4462;SDS011;2244;50.200;8.220;2023-11-21T06:05:22;26.90;;;7.43;;
4462;SDS011;2244;50.200;8.220;2023-11-21T06:07:50;29.70;;;9.57;;
4462;SDS011;2244;50.200;8.220;2023-11-21T06:10:21;27.37;;;9.80;;
4462;SDS011;2244;50.200;8.220;2023-11-21T06:12:50;27.73;;;9.80;;
4462;SDS011;2244;50.200;8.220;2023-11-21T06:15:17;25.47;;;8.63;;
4462;SDS011;2244;50.200;8.220;2023-11-21T06:17:49;26.30;;;8.30;;
4462;SDS011;2244;50.200;8.220;2023-11-21T06:20:20;25.50;;;9.50;;
4462;SDS011;2244;50.200;8.220;2023-11-21T06:22:48;26.20;;;8.40;;
4462;SDS011;2244;50.200;8.220;2023-11-21T06:25:17;25.80;;;8.20;;
4462;SDS011;2244;50.200;8.220;2023-11-21T06:27:45;28.13;;;9.87;;
4462;SDS011;2244;50.200;8.220;2023-11-21T06:30:13;26.50;;;8.53;;
4462;SDS011;2244;50.200;8.220;2023-11-21T06:32:42;25.63;;;7.00;;
4462;SDS011;2244;50.200;8.220;2023-11-21T06:35:11;25.50;;;8.97;;
4462;SDS011;2244;50.200;8.220;2023-11-21T06:37:39;25.30;;;8.23;;
4462;SDS011;2244;50.200;8.220;2023-11-21T06:40:07;23.27;;;7.50;;
4462;SDS011;2244;50.200;8.220;2023-11-21T06:42:36;24.60;;;8.57;;
4462;SDS011;2244;50.200;8.220;2023-11-21T06:45:05;25.60;;;9.20;;
4462;SDS011;2244;50.200;8.220;2023-11-21T06:47:32;25.80;;;8.60;;
4462;SDS011;2244;50.200;8.220;2023-11-21T06:50:00;27.47;;;8.27;;
4462;SDS011;2244;50.200;8.220;2023-11-21T06:52:27;24.40;;;7.80;;
4462;SDS011;2244;50.200;8.220;2023-11-21T06:54:55;26.10;;;8.63;;
4462;SDS011;2244;50.200;8.220;2023-11-21T06:57:23;28.53;;;9.00;;
4462;SDS011;2244;50.200;8.220;2023-11-21T06:59:50;23.70;;;7.50;;
4462;SDS011;2244;50.200;8.220;2023-11-21T07:02:18;23.43;;;7.13;;
4462;SDS011;2244;50.200;8.220;2023-11-21T07:04:46;23.03;;;6.83;;
4462;SDS011;2244;50.200;8.220;2023-11-21T07:07:13;25.10;;;7.80;;
4462;SDS011;2244;50.200;8.220;2023-11-21T07:09:41;25.03;;;8.00;;
4462;SDS011;2244;50.200;8.220;2023-11-21T07:12:08;23.57;;;7.10;;
4462;SDS011;2244;50.200;8.220;2023-11-21T07:14:37;24.67;;;6.97;;
4462;SDS011;2244;50.200;8.220;2023-11-21T07:17:06;28.70;;;7.70;;
4462;SDS011;2244;50.200;8.220;2023-11-21T07:19:34;27.43;;;8.77;;
4462;SDS011;2244;50.200;8.220;2023-11-21T07:22:02;25.80;;;9.00;;
4462;SDS011;2244;50.200;8.220;2023-11-21T07:24:29;25.00;;;7.23;;
4462;SDS011;2244;50.200;8.220;2023-11-21T07:26:58;24.80;;;7.40;;
4462;SDS011;2244;50.200;8.220;2023-11-21T07:29:25;23.90;;;7.50;;
4462;SDS011;2244;50.200;8.220;2023-11-21T07:31:53;24.70;;;7.63;;
4462;SDS011;2244;50.200;8.220;2023-11-21T07:34:21;28.83;;;8.80;;
4462;SDS011;2244;50.200;8.220;2023-11-21T07:36:48;27.70;;;8.13;;
4462;SDS011;2244;50.200;8.220;2023-11-21T07:39:16;22.80;;;6.00;;
4462;SDS011;2244;50.200;8.220;2023-11-21T07:41:43;23.77;;;7.00;;
4462;SDS011;2244;50.200;8.220;2023-11-21T07:44:12;24.13;;;6.40;;
4462;SDS011;2244;50.200;8.220;2023-11-21T07:46:40;31.10;;;9.33;;
4462;SDS011;2244;50.200;8.220;2023-11-21T07:49:07;25.10;;;6.90;;
4462;SDS011;2244;50.200;8.220;2023-11-21T07:51:35;27.73;;;8.80;;
4462;SDS011;2244;50.200;8.220;2023-11-21T07:54:03;25.60;;;8.50;;
4462;SDS011;2244;50.200;8.220;2023-11-21T07:56:30;28.60;;;8.90;;
4462;SDS011;2244;50.200;8.220;2023-11-21T07:58:58;25.93;;;7.10;;
4462;SDS011;2244;50.200;8.220;2023-11-21T08:01:25;24.90;;;7.00;;
4462;SDS011;2244;50.200;8.220;2023-11-21T08:03:54;26.13;;;7.80;;
4462;SDS011;2244;50.200;8.220;2023-11-21T08:06:24;26.40;;;7.43;;
4462;SDS011;2244;50.200;8.220;2023-11-21T08:08:52;24.27;;;6.40;;
4462;SDS011;2244;50.200;8.220;2023-11-21T08:11:20;25.47;;;6.50;;
4462;SDS011;2244;50.200;8.220;2023-11-21T08:13:49;25.33;;;6.23;;
4462;SDS011;2244;50.200;8.220;2023-11-21T08:16:16;27.17;;;7.00;;
4462;SDS011;2244;50.200;8.220;2023-11-21T08:18:44;32.17;;;7.40;;
4462;SDS011;2244;50.200;8.220;2023-11-21T08:21:12;24.60;;;6.80;;
4462;SDS011;2244;50.200;8.220;2023-11-21T08:23:40;23.10;;;6.00;;
4462;SDS011;2244;50.200;8.220;2023-11-21T08:26:08;27.40;;;5.63;;
4462;SDS011;2244;50.200;8.220;2023-11-21T08:28:35;26.47;;;7.83;;
4462;SDS011;2244;50.200;8.220;2023-11-21T08:31:03;25.27;;;6.63;;
4462;SDS011;2244;50.200;8.220;2023-11-21T08:33:31;24.80;;;6.63;;
4462;SDS011;2244;50.200;8.220;2023-11-21T08:35:58;23.53;;;6.07;;
4462;SDS011;2244;50.200;8.220;2023-11-21T08:38:28;24.93;;;5.90;;
4462;SDS011;2244;50.200;8.220;2023-11-21T08:40:55;25.60;;;6.27;;
4462;SDS011;2244;50.200;8.220;2023-11-21T08:43:23;23.50;;;5.83;;
4462;SDS011;2244;50.200;8.220;2023-11-21T08:45:50;25.57;;;5.43;;
4462;SDS011;2244;50.200;8.220;2023-11-21T08:48:18;23.90;;;5.10;;
4462;SDS011;2244;50.200;8.220;2023-11-21T08:50:46;24.20;;;5.60;;
4462;SDS011;2244;50.200;8.220;2023-11-21T08:53:13;23.00;;;4.90;;
4462;SDS011;2244;50.200;8.220;2023-11-21T08:55:41;28.17;;;6.40;;
4462;SDS011;2244;50.200;8.220;2023-11-21T08:58:08;24.23;;;4.70;;
4462;SDS011;2244;50.200;8.220;2023-11-21T09:00:35;24.17;;;5.83;;
4462;SDS011;2244;50.200;8.220;2023-11-21T09:03:04;25.77;;;4.97;;
4462;SDS011;2244;50.200;8.220;2023-11-21T09:05:33;25.00;;;6.53;;
4462;SDS011;2244;50.200;8.220;2023-11-21T09:08:00;26.30;;;6.70;;
4462;SDS011;2244;50.200;8.220;2023-11-21T09:10:28;30.93;;;6.70;;
4462;SDS011;2244;50.200;8.220;2023-11-21T09:12:55;24.37;;;5.70;;
4462;SDS011;2244;50.200;8.220;2023-11-21T09:15:23;24.60;;;5.10;;
4462;SDS011;2244;50.200;8.220;2023-11-21T09:17:51;23.87;;;5.47;;
4462;SDS011;2244;50.200;8.220;2023-11-21T09:20:19;23.23;;;4.97;;
4462;SDS011;2244;50.200;8.220;2023-11-21T09:22:48;22.60;;;4.70;;
4462;SDS011;2244;50.200;8.220;2023-11-21T09:25:22;21.80;;;4.57;;
4462;SDS011;2244;50.200;8.220;2023-11-21T09:27:50;24.53;;;5.30;;
4462;SDS011;2244;50.200;8.220;2023-11-21T09:30:18;24.43;;;5.50;;
4462;SDS011;2244;50.200;8.220;2023-11-21T09:32:46;24.33;;;4.87;;
4462;SDS011;2244;50.200;8.220;2023-11-21T09:35:14;26.40;;;6.07;;
4462;SDS011;2244;50.200;8.220;2023-11-21T09:37:48;23.27;;;5.07;;
4462;SDS011;2244;50.200;8.220;2023-11-21T09:40:14;26.73;;;4.97;;
4462;SDS011;2244;50.200;8.220;2023-11-21T09:42:54;22.70;;;4.80;;
4462;SDS011;2244;50.200;8.220;2023-11-21T09:45:16;23.50;;;4.57;;
4462;SDS011;2244;50.200;8.220;2023-11-21T09:47:46;26.77;;;5.30;;
4462;SDS011;2244;50.200;8.220;2023-11-21T09:50:15;28.70;;;4.80;;
4462;SDS011;2244;50.200;8.220;2023-11-21T09:55:19;22.23;;;4.70;;
4462;SDS011;2244;50.200;8.220;2023-11-21T09:57:47;32.87;;;12.60;;
4462;SDS011;2244;50.200;8.220;2023-11-21T10:00:18;115.23;;;68.67;;
4462;SDS011;2244;50.200;8.220;2023-11-21T10:02:47;123.23;;;78.37;;
4462;SDS011;2244;50.200;8.220;2023-11-21T10:05:16;31.57;;;11.40;;
4462;SDS011;2244;50.200;8.220;2023-11-21T10:07:44;27.97;;;6.20;;
4462;SDS011;2244;50.200;8.220;2023-11-21T10:10:12;28.10;;;6.33;;
4462;SDS011;2244;50.200;8.220;2023-11-21T10:12:40;25.60;;;5.50;;
4462;SDS011;2244;50.200;8.220;2023-11-21T10:15:10;24.80;;;5.43;;
4462;SDS011;2244;50.200;8.220;2023-11-21T10:17:39;25.40;;;5.30;;
4462;SDS011;2244;50.200;8.220;2023-11-21T10:20:12;23.47;;;5.30;;
4462;SDS011;2244;50.200;8.220;2023-11-21T10:22:41;24.60;;;5.23;;
4462;SDS011;2244;50.200;8.220;2023-11-21T10:25:11;25.80;;;5.50;;
4462;SDS011;2244;50.200;8.220;2023-11-21T10:27:41;23.17;;;5.20;;
4462;SDS011;2244;50.200;8.220;2023-11-21T10:30:09;24.43;;;5.50;;
4462;SDS011;2244;50.200;8.220;2023-11-21T10:32:39;24.30;;;5.30;;
4462;SDS011;2244;50.200;8.220;2023-11-21T10:35:07;23.00;;;4.90;;
4462;SDS011;2244;50.200;8.220;2023-11-21T10:37:39;24.60;;;5.23;;
4462;SDS011;2244;50.200;8.220;2023-11-21T10:40:07;25.10;;;4.90;;
4462;SDS011;2244;50.200;8.220;2023-11-21T10:42:40;26.37;;;4.87;;
4462;SDS011;2244;50.200;8.220;2023-11-21T10:45:08;24.27;;;4.63;;
4462;SDS011;2244;50.200;8.220;2023-11-21T10:47:38;30.37;;;4.73;;
4462;SDS011;2244;50.200;8.220;2023-11-21T10:50:05;22.47;;;4.50;;
4462;SDS011;2244;50.200;8.220;2023-11-21T10:52:35;22.83;;;4.03;;
4462;SDS011;2244;50.200;8.220;2023-11-21T10:55:05;26.50;;;4.67;;
4462;SDS011;2244;50.200;8.220;2023-11-21T10:57:31;22.37;;;4.30;;
4462;SDS011;2244;50.200;8.220;2023-11-21T10:59:59;26.33;;;4.87;;
4462;SDS011;2244;50.200;8.220;2023-11-21T11:02:27;22.40;;;4.43;;
4462;SDS011;2244;50.200;8.220;2023-11-21T11:04:55;23.63;;;4.10;;
4462;SDS011;2244;50.200;8.220;2023-11-21T11:07:26;25.60;;;4.63;;
4462;SDS011;2244;50.200;8.220;2023-11-21T11:09:54;25.53;;;5.03;;
4462;SDS011;2244;50.200;8.220;2023-11-21T11:12:21;23.70;;;4.50;;
4462;SDS011;2244;50.200;8.220;2023-11-21T11:14:51;24.20;;;4.43;;
4462;SDS011;2244;50.200;8.220;2023-11-21T11:17:19;26.23;;;4.40;;
4462;SDS011;2244;50.200;8.220;2023-11-21T11:19:48;24.33;;;4.20;;
4462;SDS011;2244;50.200;8.220;2023-11-21T11:22:23;25.37;;;3.87;;
4462;SDS011;2244;50.200;8.220;2023-11-21T11:24:54;23.20;;;4.37;;
4462;SDS011;2244;50.200;8.220;2023-11-21T11:27:38;22.63;;;4.60;;
4462;SDS011;2244;50.200;8.220;2023-11-21T11:30:11;26.33;;;5.00;;
4462;SDS011;2244;50.200;8.220;2023-11-21T11:37:57;25.63;;;5.60;;
4462;SDS011;2244;50.200;8.220;2023-11-21T11:40:38;25.70;;;5.07;;
4462;SDS011;2244;50.200;8.220;2023-11-21T11:43:01;27.40;;;5.23;;
4462;SDS011;2244;50.200;8.220;2023-11-21T11:45:32;25.17;;;4.73;;
4462;SDS011;2244;50.200;8.220;2023-11-21T11:48:00;24.80;;;5.27;;
4462;SDS011;2244;50.200;8.220;2023-11-21T11:50:28;23.80;;;5.27;;
4462;SDS011;2244;50.200;8.220;2023-11-21T11:52:57;24.57;;;4.93;;
4462;SDS011;2244;50.200;8.220;2023-11-21T11:55:25;27.37;;;4.50;;
4462;SDS011;2244;50.200;8.220;2023-11-21T11:57:55;23.53;;;4.57;;
4462;SDS011;2244;50.200;8.220;2023-11-21T12:03:00;30.10;;;5.33;;
4462;SDS011;2244;50.200;8.220;2023-11-21T12:05:33;22.73;;;4.97;;
4462;SDS011;2244;50.200;8.220;2023-11-21T12:08:08;24.63;;;5.60;;
4462;SDS011;2244;50.200;8.220;2023-11-21T12:10:37;26.40;;;5.57;;
4462;SDS011;2244;50.200;8.220;2023-11-21T12:13:06;29.27;;;6.80;;
4462;SDS011;2244;50.200;8.220;2023-11-21T12:15:34;26.33;;;6.63;;
4462;SDS011;2244;50.200;8.220;2023-11-21T12:18:06;23.90;;;6.07;;
4462;SDS011;2244;50.200;8.220;2023-11-21T12:20:49;29.53;;;7.30;;
4462;SDS011;2244;50.200;8.220;2023-11-21T12:23:17;25.87;;;6.70;;
4462;SDS011;2244;50.200;8.220;2023-11-21T12:25:45;25.23;;;7.17;;
4462;SDS011;2244;50.200;8.220;2023-11-21T12:28:12;27.10;;;6.50;;
4462;SDS011;2244;50.200;8.220;2023-11-21T12:30:40;25.47;;;7.30;;
4462;SDS011;2244;50.200;8.220;2023-11-21T12:33:08;27.60;;;7.50;;
4462;SDS011;2244;50.200;8.220;2023-11-21T12:35:37;25.07;;;7.60;;
4462;SDS011;2244;50.200;8.220;2023-11-21T12:38:05;26.63;;;7.43;;
4462;SDS011;2244;50.200;8.220;2023-11-21T12:40:32;26.87;;;7.60;;
4462;SDS011;2244;50.200;8.220;2023-11-21T12:43:01;26.77;;;8.33;;
4462;SDS011;2244;50.200;8.220;2023-11-21T12:45:33;28.50;;;8.10;;
4462;SDS011;2244;50.200;8.220;2023-11-21T12:48:02;28.80;;;8.80;;
4462;SDS011;2244;50.200;8.220;2023-11-21T12:50:31;30.00;;;9.90;;
4462;SDS011;2244;50.200;8.220;2023-11-21T12:53:03;27.00;;;8.93;;
4462;SDS011;2244;50.200;8.220;2023-11-21T12:55:32;29.60;;;10.20;;
4462;SDS011;2244;50.200;8.220;2023-11-21T12:58:01;29.03;;;10.27;;
4462;SDS011;2244;50.200;8.220;2023-11-21T13:00:33;29.00;;;9.90;;
4462;SDS011;2244;50.200;8.220;2023-11-21T13:03:03;31.13;;;10.97;;
4462;SDS011;2244;50.200;8.220;2023-11-21T13:05:32;29.93;;;10.53;;
4462;SDS011;2244;50.200;8.220;2023-11-21T13:08:02;33.17;;;9.93;;
4462;SDS011;2244;50.200;8.220;2023-11-21T13:10:30;33.30;;;11.27;;
4462;SDS011;2244;50.200;8.220;2023-11-21T13:12:58;28.77;;;9.57;;
4462;SDS011;2244;50.200;8.220;2023-11-21T13:15:27;36.40;;;10.00;;
4462;SDS011;2244;50.200;8.220;2023-11-21T13:17:54;33.90;;;10.80;;
4462;SDS011;2244;50.200;8.220;2023-11-21T13:20:24;28.97;;;10.57;;
4462;SDS011;2244;50.200;8.220;2023-11-21T13:22:52;32.23;;;10.70;;
4462;SDS011;2244;50.200;8.220;2023-11-21T13:25:32;29.50;;;9.80;;
4462;SDS011;2244;50.200;8.220;2023-11-21T13:27:58;30.43;;;9.13;;
4462;SDS011;2244;50.200;8.220;2023-11-21T13:30:28;30.80;;;10.33;;
4462;SDS011;2244;50.200;8.220;2023-11-21T13:33:02;32.17;;;9.07;;
4462;SDS011;2244;50.200;8.220;2023-11-21T13:35:32;36.70;;;9.03;;
4462;SDS011;2244;50.200;8.220;2023-11-21T13:38:06;28.03;;;8.83;;
4462;SDS011;2244;50.200;8.220;2023-11-21T13:40:34;32.30;;;10.27;;
4462;SDS011;2244;50.200;8.220;2023-11-21T13:43:03;30.87;;;8.93;;
4462;SDS011;2244;50.200;8.220;2023-11-21T13:45:31;31.00;;;8.17;;
4462;SDS011;2244;50.200;8.220;2023-11-21T13:47:59;29.70;;;9.03;;
4462;SDS011;2244;50.200;8.220;2023-11-21T13:50:26;28.37;;;9.07;;
4462;SDS011;2244;50.200;8.220;2023-11-21T13:52:59;29.90;;;7.63;;
4462;SDS011;2244;50.200;8.220;2023-11-21T13:55:28;30.87;;;10.77;;
4462;SDS011;2244;50.200;8.220;2023-11-21T13:57:55;46.10;;;20.90;;
4462;SDS011;2244;50.200;8.220;2023-11-21T14:00:23;26.60;;;8.33;;
4462;SDS011;2244;50.200;8.220;2023-11-21T14:02:54;29.27;;;7.47;;
4462;SDS011;2244;50.200;8.220;2023-11-21T14:05:24;26.37;;;7.20;;
4462;SDS011;2244;50.200;8.220;2023-11-21T14:07:53;33.47;;;7.93;;
4462;SDS011;2244;50.200;8.220;2023-11-21T14:10:22;32.43;;;10.23;;
4462;SDS011;2244;50.200;8.220;2023-11-21T14:12:50;28.70;;;8.93;;
4462;SDS011;2244;50.200;8.220;2023-11-21T14:15:19;34.43;;;11.43;;
4462;SDS011;2244;50.200;8.220;2023-11-21T14:17:46;36.47;;;13.80;;
4462;SDS011;2244;50.200;8.220;2023-11-21T14:20:14;30.07;;;10.60;;
4462;SDS011;2244;50.200;8.220;2023-11-21T14:22:43;28.33;;;8.17;;
4462;SDS011;2244;50.200;8.220;2023-11-21T14:25:11;28.60;;;8.00;;
4462;SDS011;2244;50.200;8.220;2023-11-21T14:27:43;29.97;;;8.23;;
4462;SDS011;2244;50.200;8.220;2023-11-21T14:30:11;31.00;;;8.20;;
4462;SDS011;2244;50.200;8.220;2023-11-21T14:32:39;35.03;;;9.33;;
4462;SDS011;2244;50.200;8.220;2023-11-21T14:35:07;26.30;;;8.17;;
4462;SDS011;2244;50.200;8.220;2023-11-21T14:37:35;30.70;;;9.33;;
4462;SDS011;2244;50.200;8.220;2023-11-21T14:40:03;30.03;;;8.73;;
4462;SDS011;2244;50.200;8.220;2023-11-21T14:42:32;28.37;;;8.53;;
4462;SDS011;2244;50.200;8.220;2023-11-21T14:45:01;28.20;;;8.23;;
4462;SDS011;2244;50.200;8.220;2023-11-21T14:47:30;25.80;;;8.30;;
4462;SDS011;2244;50.200;8.220;2023-11-21T14:49:59;31.07;;;9.43;;
4462;SDS011;2244;50.200;8.220;2023-11-21T14:52:28;29.00;;;9.50;;
4462;SDS011;2244;50.200;8.220;2023-11-21T14:55:02;29.00;;;8.73;;
4462;SDS011;2244;50.200;8.220;2023-11-21T14:57:49;33.50;;;10.00;;
4462;SDS011;2244;50.200;8.220;2023-11-21T15:00:17;32.73;;;10.17;;
4462;SDS011;2244;50.200;8.220;2023-11-21T15:03:04;29.87;;;10.17;;
4462;SDS011;2244;50.200;8.220;2023-11-21T15:05:32;33.10;;;10.97;;
4462;SDS011;2244;50.200;8.220;2023-11-21T15:08:02;28.67;;;9.00;;
4462;SDS011;2244;50.200;8.220;2023-11-21T15:10:39;33.07;;;9.80;;
4462;SDS011;2244;50.200;8.220;2023-11-21T15:13:08;31.87;;;10.93;;
4462;SDS011;2244;50.200;8.220;2023-11-21T15:15:37;35.03;;;12.57;;
4462;SDS011;2244;50.200;8.220;2023-11-21T15:18:06;30.60;;;10.50;;